sensor_id;sensor_type;location;lat;lon;timestamp;pressure;altitude;pressure_sealevel;temperature;humidity
72428;BME280;60419;48.880;18.036;2024-03-02T00:01:50;98346.94;;;11.57;71.75
72428;BME280;60419;48.880;18.036;2024-03-02T00:04:35;98343.56;;;11.60;71.44
72428;BME280;60419;48.880;18.036;2024-03-02T00:07:20;98357.72;;;10.33;78.06
72428;BME280;60419;48.880;18.036;2024-03-02T00:10:08;98348.88;;;10.79;75.68
72428;BME280;60419;48.880;18.036;2024-03-02T00:12:56;98347.81;;;11.40;73.77
72428;BME280;60419;48.880;18.036;2024-03-02T00:15:48;98355.69;;;10.94;75.58
72428;BME280;60419;48.880;18.036;2024-03-02T00:18:36;98337.25;;;11.26;72.73
72428;BME280;60419;48.880;18.036;2024-03-02T00:21:27;98357.75;;;11.27;73.92
72428;BME280;60419;48.880;18.036;2024-03-02T00:24:29;98340.75;;;10.88;74.22
72428;BME280;60419;48.880;18.036;2024-03-02T00:27:17;98353.78;;;10.95;75.23
72428;BME280;60419;48.880;18.036;2024-03-02T00:33:16;98351.50;;;10.50;76.20
72428;BME280;60419;48.880;18.036;2024-03-02T00:36:05;98349.78;;;10.45;77.85
72428;BME280;60419;48.880;18.036;2024-03-02T00:38:53;98347.59;;;10.94;75.56
72428;BME280;60419;48.880;18.036;2024-03-02T00:41:40;98348.03;;;10.96;75.55
72428;BME280;60419;48.880;18.036;2024-03-02T00:44:27;98334.22;;;10.98;75.21
72428;BME280;60419;48.880;18.036;2024-03-02T00:47:16;98352.72;;;11.46;72.60
72428;BME280;60419;48.880;18.036;2024-03-02T00:50:01;98337.09;;;10.84;74.45
72428;BME280;60419;48.880;18.036;2024-03-02T00:52:46;98337.09;;;10.84;74.23
72428;BME280;60419;48.880;18.036;2024-03-02T00:55:36;98342.75;;;10.53;75.92
72428;BME280;60419;48.880;18.036;2024-03-02T00:58:22;98331.88;;;11.17;73.46
72428;BME280;60419;48.880;18.036;2024-03-02T01:01:07;98313.84;;;11.30;72.54
72428;BME280;60419;48.880;18.036;2024-03-02T01:03:53;98320.56;;;11.24;72.28
72428;BME280;60419;48.880;18.036;2024-03-02T01:06:38;98324.72;;;10.92;73.95
72428;BME280;60419;48.880;18.036;2024-03-02T01:09:23;98327.38;;;10.45;75.95
72428;BME280;60419;48.880;18.036;2024-03-02T01:12:09;98330.59;;;11.15;73.09
72428;BME280;60419;48.880;18.036;2024-03-02T01:14:54;98327.41;;;10.27;76.30
72428;BME280;60419;48.880;18.036;2024-03-02T01:17:39;98332.03;;;9.66;78.36
72428;BME280;60419;48.880;18.036;2024-03-02T01:20:25;98334.25;;;9.55;79.27
72428;BME280;60419;48.880;18.036;2024-03-02T01:23:11;98333.00;;;9.87;78.54
72428;BME280;60419;48.880;18.036;2024-03-02T01:25:56;98331.00;;;10.49;75.64
72428;BME280;60419;48.880;18.036;2024-03-02T01:28:42;98321.44;;;10.69;74.43
72428;BME280;60419;48.880;18.036;2024-03-02T01:31:27;98316.91;;;11.20;72.63
72428;BME280;60419;48.880;18.036;2024-03-02T01:34:12;98313.78;;;11.39;71.41
72428;BME280;60419;48.880;18.036;2024-03-02T01:36:57;98309.81;;;10.12;75.66
72428;BME280;60419;48.880;18.036;2024-03-02T01:39:43;98297.28;;;9.47;78.45
72428;BME280;60419;48.880;18.036;2024-03-02T01:42:28;98314.41;;;9.42;80.41
72428;BME280;60419;48.880;18.036;2024-03-02T01:45:14;98300.00;;;9.73;78.95
72428;BME280;60419;48.880;18.036;2024-03-02T01:48:00;98302.03;;;10.11;77.80
72428;BME280;60419;48.880;18.036;2024-03-02T01:50:45;98310.22;;;10.41;75.99
72428;BME280;60419;48.880;18.036;2024-03-02T01:53:31;98296.34;;;10.68;74.24
72428;BME280;60419;48.880;18.036;2024-03-02T01:56:16;98296.31;;;11.07;73.31
72428;BME280;60419;48.880;18.036;2024-03-02T01:59:01;98303.38;;;11.29;72.04
72428;BME280;60419;48.880;18.036;2024-03-02T02:01:47;98306.34;;;11.36;71.13
72428;BME280;60419;48.880;18.036;2024-03-02T02:04:32;98293.66;;;10.59;73.12
72428;BME280;60419;48.880;18.036;2024-03-02T02:07:18;98298.09;;;11.02;72.68
72428;BME280;60419;48.880;18.036;2024-03-02T02:10:05;98288.25;;;10.98;72.08
72428;BME280;60419;48.880;18.036;2024-03-02T02:12:50;98295.34;;;11.41;71.01
72428;BME280;60419;48.880;18.036;2024-03-02T02:17:49;98270.91;;;11.08;70.80
72428;BME280;60419;48.880;18.036;2024-03-02T02:20:34;98287.25;;;11.11;71.42
72428;BME280;60419;48.880;18.036;2024-03-02T02:23:20;98291.81;;;10.90;72.90
72428;BME280;60419;48.880;18.036;2024-03-02T02:26:05;98293.09;;;10.28;74.55
72428;BME280;60419;48.880;18.036;2024-03-02T02:28:50;98295.25;;;9.70;76.08
72428;BME280;60419;48.880;18.036;2024-03-02T02:31:37;98287.28;;;10.00;75.90
72428;BME280;60419;48.880;18.036;2024-03-02T02:34:23;98287.84;;;10.40;74.39
72428;BME280;60419;48.880;18.036;2024-03-02T02:37:08;98281.09;;;10.64;73.80
72428;BME280;60419;48.880;18.036;2024-03-02T02:39:54;98281.97;;;10.38;74.56
72428;BME280;60419;48.880;18.036;2024-03-02T02:42:39;98266.84;;;10.46;74.49
72428;BME280;60419;48.880;18.036;2024-03-02T02:45:25;98284.59;;;10.00;75.93
72428;BME280;60419;48.880;18.036;2024-03-02T02:48:10;98266.84;;;9.29;77.91
72428;BME280;60419;48.880;18.036;2024-03-02T02:50:55;98290.00;;;9.73;78.36
72428;BME280;60419;48.880;18.036;2024-03-02T02:53:41;98294.13;;;9.71;77.12
72428;BME280;60419;48.880;18.036;2024-03-02T02:56:26;98286.34;;;9.87;77.27
72428;BME280;60419;48.880;18.036;2024-03-02T02:59:12;98292.41;;;9.66;77.17
72428;BME280;60419;48.880;18.036;2024-03-02T03:01:57;98286.09;;;9.05;79.89
72428;BME280;60419;48.880;18.036;2024-03-02T03:04:43;98290.56;;;9.10;80.53
72428;BME280;60419;48.880;18.036;2024-03-02T03:07:28;98294.53;;;9.12;79.98
72428;BME280;60419;48.880;18.036;2024-03-02T03:10:13;98266.06;;;8.80;80.00
72428;BME280;60419;48.880;18.036;2024-03-02T03:12:59;98284.47;;;8.86;80.24
72428;BME280;60419;48.880;18.036;2024-03-02T03:15:44;98272.59;;;8.48;82.42
72428;BME280;60419;48.880;18.036;2024-03-02T03:18:30;98291.00;;;9.03;80.94
72428;BME280;60419;48.880;18.036;2024-03-02T03:21:15;98298.72;;;9.36;80.16
72428;BME280;60419;48.880;18.036;2024-03-02T03:24:00;98311.59;;;9.65;78.07
72428;BME280;60419;48.880;18.036;2024-03-02T03:26:46;98293.03;;;9.81;76.11
72428;BME280;60419;48.880;18.036;2024-03-02T03:29:31;98298.38;;;10.07;75.07
72428;BME280;60419;48.880;18.036;2024-03-02T03:32:17;98303.88;;;10.36;74.69
72428;BME280;60419;48.880;18.036;2024-03-02T03:35:03;98285.16;;;10.40;73.09
72428;BME280;60419;48.880;18.036;2024-03-02T03:37:49;98296.66;;;10.11;74.40
72428;BME280;60419;48.880;18.036;2024-03-02T03:40:34;98304.38;;;10.30;73.38
72428;BME280;60419;48.880;18.036;2024-03-02T03:43:19;98300.34;;;10.53;72.41
72428;BME280;60419;48.880;18.036;2024-03-02T03:46:05;98291.56;;;10.09;73.17
72428;BME280;60419;48.880;18.036;2024-03-02T03:48:50;98305.22;;;10.04;73.89
72428;BME280;60419;48.880;18.036;2024-03-02T03:51:35;98304.13;;;9.97;74.51
72428;BME280;60419;48.880;18.036;2024-03-02T03:54:21;98302.50;;;10.22;73.64
72428;BME280;60419;48.880;18.036;2024-03-02T03:57:06;98289.53;;;9.89;74.31
72428;BME280;60419;48.880;18.036;2024-03-02T03:59:52;98289.22;;;9.64;75.36
72428;BME280;60419;48.880;18.036;2024-03-02T04:02:38;98293.94;;;10.11;74.30
72428;BME280;60419;48.880;18.036;2024-03-02T04:05:24;98291.41;;;10.14;73.41
72428;BME280;60419;48.880;18.036;2024-03-02T04:08:09;98284.09;;;10.06;74.19
72428;BME280;60419;48.880;18.036;2024-03-02T04:10:54;98290.81;;;10.00;74.43
72428;BME280;60419;48.880;18.036;2024-03-02T04:13:40;98278.59;;;9.85;74.69
72428;BME280;60419;48.880;18.036;2024-03-02T04:16:25;98286.50;;;9.56;75.97
72428;BME280;60419;48.880;18.036;2024-03-02T04:19:10;98288.94;;;9.00;78.53
72428;BME280;60419;48.880;18.036;2024-03-02T04:21:56;98287.63;;;9.63;76.85
72428;BME280;60419;48.880;18.036;2024-03-02T04:24:41;98284.41;;;10.05;74.66
72428;BME280;60419;48.880;18.036;2024-03-02T04:27:27;98288.25;;;9.78;75.38
72428;BME280;60419;48.880;18.036;2024-03-02T04:30:12;98293.34;;;9.70;75.03
72428;BME280;60419;48.880;18.036;2024-03-02T04:32:57;98289.88;;;9.61;75.06
72428;BME280;60419;48.880;18.036;2024-03-02T04:35:43;98293.66;;;9.78;75.01
72428;BME280;60419;48.880;18.036;2024-03-02T04:38:28;98296.66;;;9.93;74.91
72428;BME280;60419;48.880;18.036;2024-03-02T04:41:14;98286.66;;;9.77;74.65
72428;BME280;60419;48.880;18.036;2024-03-02T04:44:00;98302.38;;;9.66;75.53
72428;BME280;60419;48.880;18.036;2024-03-02T04:46:45;98289.22;;;9.73;74.59
72428;BME280;60419;48.880;18.036;2024-03-02T04:49:31;98295.88;;;9.84;74.17
72428;BME280;60419;48.880;18.036;2024-03-02T04:52:16;98305.53;;;9.94;74.55
72428;BME280;60419;48.880;18.036;2024-03-02T04:55:02;98304.56;;;10.07;73.09
72428;BME280;60419;48.880;18.036;2024-03-02T04:58:06;98303.34;;;8.95;78.81
72428;BME280;60419;48.880;18.036;2024-03-02T05:00:52;98311.53;;;8.41;81.68
72428;BME280;60419;48.880;18.036;2024-03-02T05:03:37;98306.19;;;8.90;78.76
72428;BME280;60419;48.880;18.036;2024-03-02T05:06:23;98301.81;;;9.12;77.39
72428;BME280;60419;48.880;18.036;2024-03-02T05:09:09;98319.00;;;9.50;75.81
72428;BME280;60419;48.880;18.036;2024-03-02T05:11:54;98311.56;;;9.39;75.22
72428;BME280;60419;48.880;18.036;2024-03-02T05:14:55;98315.94;;;7.70;82.80
72428;BME280;60419;48.880;18.036;2024-03-02T05:17:41;98302.00;;;7.45;86.57
72428;BME280;60419;48.880;18.036;2024-03-02T05:20:30;98314.34;;;7.69;87.56
72428;BME280;60419;48.880;18.036;2024-03-02T05:23:16;98305.41;;;7.60;87.21
72428;BME280;60419;48.880;18.036;2024-03-02T05:26:01;98301.22;;;8.12;84.14
72428;BME280;60419;48.880;18.036;2024-03-02T05:28:47;98304.63;;;8.58;82.98
72428;BME280;60419;48.880;18.036;2024-03-02T05:31:32;98312.00;;;8.43;81.62
72428;BME280;60419;48.880;18.036;2024-03-02T05:34:17;98316.06;;;8.63;80.48
72428;BME280;60419;48.880;18.036;2024-03-02T05:37:03;98295.97;;;8.38;81.20
72428;BME280;60419;48.880;18.036;2024-03-02T05:39:49;98322.09;;;8.69;79.56
72428;BME280;60419;48.880;18.036;2024-03-02T05:42:34;98327.78;;;8.99;78.81
72428;BME280;60419;48.880;18.036;2024-03-02T05:45:20;98332.66;;;8.97;77.75
72428;BME280;60419;48.880;18.036;2024-03-02T05:48:07;98341.84;;;8.56;78.97
72428;BME280;60419;48.880;18.036;2024-03-02T05:50:52;98333.06;;;8.73;79.07
72428;BME280;60419;48.880;18.036;2024-03-02T05:53:38;98337.94;;;8.71;78.77
72428;BME280;60419;48.880;18.036;2024-03-02T05:56:23;98327.19;;;8.17;81.41
72428;BME280;60419;48.880;18.036;2024-03-02T05:59:09;98330.91;;;8.52;80.46
72428;BME280;60419;48.880;18.036;2024-03-02T06:02:01;98344.72;;;8.59;79.67
72428;BME280;60419;48.880;18.036;2024-03-02T06:04:46;98347.53;;;8.54;80.80
72428;BME280;60419;48.880;18.036;2024-03-02T06:07:32;98355.28;;;8.56;80.77
72428;BME280;60419;48.880;18.036;2024-03-02T06:10:17;98358.72;;;8.79;80.04
72428;BME280;60419;48.880;18.036;2024-03-02T06:13:03;98354.19;;;8.26;81.54
72428;BME280;60419;48.880;18.036;2024-03-02T06:15:49;98367.56;;;8.71;81.66
72428;BME280;60419;48.880;18.036;2024-03-02T06:18:34;98351.97;;;8.59;80.80
72428;BME280;60419;48.880;18.036;2024-03-02T06:21:20;98350.38;;;8.89;80.09
72428;BME280;60419;48.880;18.036;2024-03-02T06:24:05;98366.69;;;8.84;80.23
72428;BME280;60419;48.880;18.036;2024-03-02T06:26:51;98364.09;;;8.70;81.77
72428;BME280;60419;48.880;18.036;2024-03-02T06:29:38;98369.34;;;8.75;81.25
72428;BME280;60419;48.880;18.036;2024-03-02T06:32:23;98365.41;;;8.81;81.40
72428;BME280;60419;48.880;18.036;2024-03-02T06:35:10;98371.22;;;8.75;81.45
72428;BME280;60419;48.880;18.036;2024-03-02T06:37:55;98383.84;;;8.97;80.93
72428;BME280;60419;48.880;18.036;2024-03-02T06:40:41;98388.59;;;9.31;79.83
72428;BME280;60419;48.880;18.036;2024-03-02T06:43:26;98392.59;;;9.42;79.36
72428;BME280;60419;48.880;18.036;2024-03-02T06:46:11;98381.28;;;8.92;80.62
72428;BME280;60419;48.880;18.036;2024-03-02T06:48:59;98376.16;;;8.28;81.58
72428;BME280;60419;48.880;18.036;2024-03-02T06:51:47;98402.88;;;8.69;81.89
72428;BME280;60419;48.880;18.036;2024-03-02T06:54:32;98401.06;;;8.11;82.69
72428;BME280;60419;48.880;18.036;2024-03-02T06:57:19;98402.75;;;8.07;84.93
72428;BME280;60419;48.880;18.036;2024-03-02T07:00:06;98361.41;;;7.80;83.02
72428;BME280;60419;48.880;18.036;2024-03-02T07:02:54;98402.16;;;8.32;83.01
72428;BME280;60419;48.880;18.036;2024-03-02T07:05:39;98420.34;;;8.27;83.53
72428;BME280;60419;48.880;18.036;2024-03-02T07:08:24;98414.69;;;8.14;83.39
72428;BME280;60419;48.880;18.036;2024-03-02T07:11:10;98404.59;;;8.20;83.45
72428;BME280;60419;48.880;18.036;2024-03-02T07:13:55;98432.16;;;8.62;82.28
72428;BME280;60419;48.880;18.036;2024-03-02T07:16:41;98427.97;;;8.56;83.21
72428;BME280;60419;48.880;18.036;2024-03-02T07:19:28;98432.59;;;8.64;82.59
72428;BME280;60419;48.880;18.036;2024-03-02T07:22:13;98424.38;;;8.38;83.45
72428;BME280;60419;48.880;18.036;2024-03-02T07:24:59;98434.06;;;8.25;84.33
72428;BME280;60419;48.880;18.036;2024-03-02T07:27:44;98435.75;;;7.98;85.93
72428;BME280;60419;48.880;18.036;2024-03-02T07:30:30;98441.91;;;8.13;86.41
72428;BME280;60419;48.880;18.036;2024-03-02T07:33:15;98431.88;;;8.27;85.51
72428;BME280;60419;48.880;18.036;2024-03-02T07:36:02;98439.53;;;8.34;84.82
72428;BME280;60419;48.880;18.036;2024-03-02T07:38:50;98449.56;;;8.42;84.29
72428;BME280;60419;48.880;18.036;2024-03-02T07:41:36;98456.78;;;8.55;85.24
72428;BME280;60419;48.880;18.036;2024-03-02T07:44:21;98439.56;;;8.20;84.87
72428;BME280;60419;48.880;18.036;2024-03-02T07:47:07;98450.06;;;8.44;84.12
72428;BME280;60419;48.880;18.036;2024-03-02T07:49:52;98442.66;;;8.50;84.31
72428;BME280;60419;48.880;18.036;2024-03-02T07:52:38;98455.97;;;8.77;83.92
72428;BME280;60419;48.880;18.036;2024-03-02T07:55:24;98445.56;;;9.16;81.63
72428;BME280;60419;48.880;18.036;2024-03-02T07:58:10;98451.22;;;8.74;83.55
72428;BME280;60419;48.880;18.036;2024-03-02T08:00:56;98453.72;;;8.71;83.31
72428;BME280;60419;48.880;18.036;2024-03-02T08:03:42;98452.28;;;8.64;83.42
72428;BME280;60419;48.880;18.036;2024-03-02T08:06:27;98455.31;;;8.72;83.37
72428;BME280;60419;48.880;18.036;2024-03-02T08:09:13;98468.53;;;8.82;83.53
72428;BME280;60419;48.880;18.036;2024-03-02T08:11:58;98452.69;;;8.58;84.65
72428;BME280;60419;48.880;18.036;2024-03-02T08:14:44;98458.09;;;9.12;84.06
72428;BME280;60419;48.880;18.036;2024-03-02T08:17:30;98446.34;;;9.07;82.82
72428;BME280;60419;48.880;18.036;2024-03-02T08:20:15;98441.16;;;9.60;81.33
72428;BME280;60419;48.880;18.036;2024-03-02T08:23:01;98429.72;;;9.45;80.69
72428;BME280;60419;48.880;18.036;2024-03-02T08:25:46;98464.22;;;9.75;80.97
72428;BME280;60419;48.880;18.036;2024-03-02T08:28:32;98468.22;;;10.03;87.36
72428;BME280;60419;48.880;18.036;2024-03-02T08:31:18;98467.91;;;10.31;82.09
72428;BME280;60419;48.880;18.036;2024-03-02T08:34:03;98468.09;;;9.51;81.49
72428;BME280;60419;48.880;18.036;2024-03-02T08:36:49;98460.91;;;9.06;83.33
72428;BME280;60419;48.880;18.036;2024-03-02T08:39:34;98473.09;;;9.75;84.22
72428;BME280;60419;48.880;18.036;2024-03-02T08:42:19;98469.19;;;10.16;81.29
72428;BME280;60419;48.880;18.036;2024-03-02T08:45:06;98468.88;;;10.09;80.04
72428;BME280;60419;48.880;18.036;2024-03-02T08:47:52;98470.78;;;10.69;78.44
72428;BME280;60419;48.880;18.036;2024-03-02T08:50:37;98467.09;;;11.00;76.87
72428;BME280;60419;48.880;18.036;2024-03-02T08:53:24;98475.06;;;10.35;79.36
72428;BME280;60419;48.880;18.036;2024-03-02T08:56:09;98460.78;;;10.00;80.46
72428;BME280;60419;48.880;18.036;2024-03-02T08:58:54;98407.75;;;10.13;78.72
72428;BME280;60419;48.880;18.036;2024-03-02T09:01:40;98465.81;;;10.89;77.27
72428;BME280;60419;48.880;18.036;2024-03-02T09:04:27;98452.66;;;10.78;77.18
72428;BME280;60419;48.880;18.036;2024-03-02T09:07:13;98467.47;;;10.29;79.24
72428;BME280;60419;48.880;18.036;2024-03-02T09:09:59;98468.09;;;10.43;79.22
72428;BME280;60419;48.880;18.036;2024-03-02T09:12:44;98461.41;;;10.58;79.44
72428;BME280;60419;48.880;18.036;2024-03-02T09:15:29;98438.81;;;10.97;77.04
72428;BME280;60419;48.880;18.036;2024-03-02T09:18:15;98467.88;;;11.47;81.97
72428;BME280;60419;48.880;18.036;2024-03-02T09:21:00;98472.22;;;10.58;77.84
72428;BME280;60419;48.880;18.036;2024-03-02T09:23:45;98465.84;;;10.71;78.18
72428;BME280;60419;48.880;18.036;2024-03-02T09:26:32;98465.09;;;11.26;75.89
72428;BME280;60419;48.880;18.036;2024-03-02T09:29:17;98469.91;;;11.59;84.04
72428;BME280;60419;48.880;18.036;2024-03-02T09:32:06;98474.19;;;11.60;77.34
72428;BME280;60419;48.880;18.036;2024-03-02T09:34:52;98472.06;;;10.89;76.11
72428;BME280;60419;48.880;18.036;2024-03-02T09:37:38;98454.72;;;10.90;76.58
72428;BME280;60419;48.880;18.036;2024-03-02T09:40:24;98465.13;;;11.86;73.97
72428;BME280;60419;48.880;18.036;2024-03-02T09:43:09;98443.09;;;11.75;73.04
72428;BME280;60419;48.880;18.036;2024-03-02T09:45:55;98462.66;;;11.72;73.17
72428;BME280;60419;48.880;18.036;2024-03-02T09:48:44;98470.28;;;12.00;72.52
72428;BME280;60419;48.880;18.036;2024-03-02T09:51:31;98469.22;;;12.22;71.59
72428;BME280;60419;48.880;18.036;2024-03-02T09:54:16;98460.09;;;12.26;71.51
72428;BME280;60419;48.880;18.036;2024-03-02T09:57:03;98467.41;;;12.05;72.62
72428;BME280;60419;48.880;18.036;2024-03-02T09:59:48;98456.31;;;11.68;73.19
72428;BME280;60419;48.880;18.036;2024-03-02T10:02:34;98468.06;;;12.02;72.78
72428;BME280;60419;48.880;18.036;2024-03-02T10:05:26;98444.78;;;11.80;72.41
72428;BME280;60419;48.880;18.036;2024-03-02T10:08:15;98465.34;;;12.02;72.58
72428;BME280;60419;48.880;18.036;2024-03-02T10:11:00;98467.09;;;11.47;73.42
72428;BME280;60419;48.880;18.036;2024-03-02T10:13:45;98473.75;;;11.50;74.45
72428;BME280;60419;48.880;18.036;2024-03-02T10:16:31;98465.53;;;12.26;72.13
72428;BME280;60419;48.880;18.036;2024-03-02T10:19:20;98463.00;;;11.70;74.15
72428;BME280;60419;48.880;18.036;2024-03-02T10:22:07;98466.75;;;11.10;75.13
72428;BME280;60419;48.880;18.036;2024-03-02T10:24:52;98462.09;;;11.58;74.52
72428;BME280;60419;48.880;18.036;2024-03-02T10:27:38;98457.91;;;12.20;72.49
72428;BME280;60419;48.880;18.036;2024-03-02T10:30:25;98460.63;;;12.41;71.30
72428;BME280;60419;48.880;18.036;2024-03-02T10:33:11;98457.41;;;12.26;72.34
72428;BME280;60419;48.880;18.036;2024-03-02T10:35:56;98461.91;;;12.43;70.78
72428;BME280;60419;48.880;18.036;2024-03-02T10:38:41;98465.19;;;12.28;71.01
72428;BME280;60419;48.880;18.036;2024-03-02T10:41:28;98461.81;;;12.31;70.70
72428;BME280;60419;48.880;18.036;2024-03-02T10:44:14;98459.94;;;12.23;71.91
72428;BME280;60419;48.880;18.036;2024-03-02T10:47:02;98439.31;;;11.67;72.97
72428;BME280;60419;48.880;18.036;2024-03-02T10:49:52;98459.03;;;11.68;73.46
72428;BME280;60419;48.880;18.036;2024-03-02T10:52:38;98450.38;;;11.75;73.22
72428;BME280;60419;48.880;18.036;2024-03-02T10:55:27;98464.59;;;11.92;72.13
72428;BME280;60419;48.880;18.036;2024-03-02T10:58:13;98402.03;;;11.43;72.43
72428;BME280;60419;48.880;18.036;2024-03-02T11:01:02;98461.34;;;12.29;71.15
72428;BME280;60419;48.880;18.036;2024-03-02T11:03:48;98458.28;;;11.88;72.69
72428;BME280;60419;48.880;18.036;2024-03-02T11:06:35;98468.72;;;11.99;72.57
72428;BME280;60419;48.880;18.036;2024-03-02T11:09:26;98450.81;;;11.85;73.03
72428;BME280;60419;48.880;18.036;2024-03-02T11:12:15;98445.84;;;12.38;77.92
72428;BME280;60419;48.880;18.036;2024-03-02T11:15:10;98460.13;;;13.26;74.15
72428;BME280;60419;48.880;18.036;2024-03-02T11:17:57;98447.72;;;13.62;72.22
72428;BME280;60419;48.880;18.036;2024-03-02T11:20:43;98459.59;;;14.22;65.31
72428;BME280;60419;48.880;18.036;2024-03-02T11:23:32;98463.13;;;12.67;69.77
72428;BME280;60419;48.880;18.036;2024-03-02T11:26:19;98447.69;;;13.37;69.20
72428;BME280;60419;48.880;18.036;2024-03-02T11:29:05;98456.41;;;13.68;68.13
72428;BME280;60419;48.880;18.036;2024-03-02T11:32:00;98455.28;;;13.69;67.66
72428;BME280;60419;48.880;18.036;2024-03-02T11:34:47;98455.94;;;13.90;73.90
72428;BME280;60419;48.880;18.036;2024-03-02T11:37:34;98454.72;;;13.75;69.54
72428;BME280;60419;48.880;18.036;2024-03-02T11:40:23;98459.81;;;13.89;74.54
72428;BME280;60419;48.880;18.036;2024-03-02T11:43:10;98462.34;;;14.50;72.92
72428;BME280;60419;48.880;18.036;2024-03-02T11:45:57;98450.59;;;17.64;67.24
72428;BME280;60419;48.880;18.036;2024-03-02T11:48:43;98449.38;;;16.15;59.49
72428;BME280;60419;48.880;18.036;2024-03-02T11:51:29;98452.19;;;15.35;61.47
72428;BME280;60419;48.880;18.036;2024-03-02T11:54:14;98434.09;;;13.99;65.04
72428;BME280;60419;48.880;18.036;2024-03-02T11:57:02;98454.50;;;13.68;67.64
72428;BME280;60419;48.880;18.036;2024-03-02T11:59:48;98451.31;;;13.29;69.17
72428;BME280;60419;48.880;18.036;2024-03-02T12:02:34;98449.22;;;11.84;74.37
72428;BME280;60419;48.880;18.036;2024-03-02T12:05:20;98456.31;;;10.74;79.14
72428;BME280;60419;48.880;18.036;2024-03-02T12:08:06;98456.13;;;10.70;80.67
72428;BME280;60419;48.880;18.036;2024-03-02T12:11:00;98453.91;;;10.72;81.30
72428;BME280;60419;48.880;18.036;2024-03-02T12:13:52;98441.88;;;10.61;81.23
72428;BME280;60419;48.880;18.036;2024-03-02T12:16:43;98439.34;;;10.30;83.07
72428;BME280;60419;48.880;18.036;2024-03-02T12:19:29;98450.53;;;9.71;87.06
72428;BME280;60419;48.880;18.036;2024-03-02T12:22:15;98455.19;;;9.31;89.48
72428;BME280;60419;48.880;18.036;2024-03-02T12:25:01;98452.78;;;9.29;90.33
72428;BME280;60419;48.880;18.036;2024-03-02T12:27:51;98452.72;;;8.89;93.03
72428;BME280;60419;48.880;18.036;2024-03-02T12:30:37;98430.66;;;9.10;92.38
72428;BME280;60419;48.880;18.036;2024-03-02T12:33:22;98454.81;;;9.23;91.65
72428;BME280;60419;48.880;18.036;2024-03-02T12:36:10;98447.25;;;9.34;91.79
72428;BME280;60419;48.880;18.036;2024-03-02T12:38:59;98447.50;;;9.55;89.97
72428;BME280;60419;48.880;18.036;2024-03-02T12:41:45;98452.69;;;10.00;88.07
72428;BME280;60419;48.880;18.036;2024-03-02T12:44:31;98418.16;;;9.62;89.34
72428;BME280;60419;48.880;18.036;2024-03-02T12:47:16;98451.56;;;10.10;86.89
72428;BME280;60419;48.880;18.036;2024-03-02T12:50:05;98442.22;;;10.25;86.27
72428;BME280;60419;48.880;18.036;2024-03-02T12:52:51;98453.47;;;10.18;86.78
72428;BME280;60419;48.880;18.036;2024-03-02T12:55:37;98436.56;;;9.60;89.70
72428;BME280;60419;48.880;18.036;2024-03-02T12:58:22;98437.56;;;9.82;88.51
72428;BME280;60419;48.880;18.036;2024-03-02T13:01:08;98446.47;;;9.91;88.98
72428;BME280;60419;48.880;18.036;2024-03-02T13:03:54;98422.59;;;9.58;89.32
72428;BME280;60419;48.880;18.036;2024-03-02T13:06:40;98436.38;;;11.13;97.11
72428;BME280;60419;48.880;18.036;2024-03-02T13:09:26;98433.63;;;12.98;91.43
72428;BME280;60419;48.880;18.036;2024-03-02T13:12:11;98426.59;;;11.89;81.77
72428;BME280;60419;48.880;18.036;2024-03-02T13:14:58;98429.19;;;11.85;80.06
72428;BME280;60419;48.880;18.036;2024-03-02T13:17:47;98429.56;;;11.07;82.52
72428;BME280;60419;48.880;18.036;2024-03-02T13:20:32;98421.94;;;12.19;90.27
72428;BME280;60419;48.880;18.036;2024-03-02T13:23:18;98409.03;;;11.44;82.38
72428;BME280;60419;48.880;18.036;2024-03-02T13:26:05;98423.41;;;10.89;83.27
72428;BME280;60419;48.880;18.036;2024-03-02T13:28:52;98422.03;;;11.21;83.28
72428;BME280;60419;48.880;18.036;2024-03-02T13:31:38;98433.75;;;10.78;83.31
72428;BME280;60419;48.880;18.036;2024-03-02T13:34:23;98420.19;;;11.94;87.98
72428;BME280;60419;48.880;18.036;2024-03-02T13:37:09;98426.44;;;10.79;83.74
72428;BME280;60419;48.880;18.036;2024-03-02T13:39:54;98422.13;;;10.78;83.67
72428;BME280;60419;48.880;18.036;2024-03-02T13:42:40;98426.16;;;10.63;85.10
72428;BME280;60419;48.880;18.036;2024-03-02T13:45:25;98433.16;;;10.38;86.24
72428;BME280;60419;48.880;18.036;2024-03-02T13:48:10;98420.28;;;10.35;86.67
72428;BME280;60419;48.880;18.036;2024-03-02T13:50:56;98434.06;;;10.59;86.31
72428;BME280;60419;48.880;18.036;2024-03-02T13:53:41;98437.84;;;11.40;83.16
72428;BME280;60419;48.880;18.036;2024-03-02T13:56:26;98425.06;;;11.79;81.16
72428;BME280;60419;48.880;18.036;2024-03-02T13:59:12;98431.94;;;12.19;78.71
72428;BME280;60419;48.880;18.036;2024-03-02T14:01:57;98428.16;;;11.90;79.65
72428;BME280;60419;48.880;18.036;2024-03-02T14:04:43;98405.53;;;11.95;88.75
72428;BME280;60419;48.880;18.036;2024-03-02T14:07:29;98426.59;;;12.85;88.97
72428;BME280;60419;48.880;18.036;2024-03-02T14:10:15;98415.03;;;13.21;82.76
72428;BME280;60419;48.880;18.036;2024-03-02T14:13:01;98408.22;;;12.57;76.98
72428;BME280;60419;48.880;18.036;2024-03-02T14:15:46;98422.91;;;12.56;76.58
72428;BME280;60419;48.880;18.036;2024-03-02T14:18:32;98425.09;;;12.42;76.94
72428;BME280;60419;48.880;18.036;2024-03-02T14:21:17;98427.06;;;12.12;78.37
72428;BME280;60419;48.880;18.036;2024-03-02T14:24:03;98398.53;;;11.73;78.25
72428;BME280;60419;48.880;18.036;2024-03-02T14:26:48;98423.47;;;11.48;80.67
72428;BME280;60419;48.880;18.036;2024-03-02T14:29:34;98426.00;;;11.24;80.97
72428;BME280;60419;48.880;18.036;2024-03-02T14:32:21;98392.66;;;11.11;82.03
72428;BME280;60419;48.880;18.036;2024-03-02T14:35:07;98411.44;;;11.08;82.44
72428;BME280;60419;48.880;18.036;2024-03-02T14:37:55;98417.22;;;11.27;82.43
72428;BME280;60419;48.880;18.036;2024-03-02T14:40:42;98422.44;;;11.41;82.42